Decoded Metar for KSVE (SUSANVILLE MUNI in CA, USA) (IATA:SVE) | Meteo·Mobile Aviation Weather
aviador You're here:

KSVE Decoded Metar

SUSANVILLE MUNI in CA, USA
Report Time2018-10-20 08:15:00
UTC Time2018-10-20 08:17:24
Flight Rules vfr VFR
Wind280° at 06 kt
W.Decomp.*RWY 25: 5.8 kt HW 1.3 kt RCW
RWY 29: 5.3 kt HW 2.7 kt LCW
W.Rank280° ranks 2
Current wind is above 280° avg. (5.8)
Visibility9999 m
Phenomena:N/A
Clouds:N/A
Expected CloudBase > 3,200 ft AGL from Temp-Dew spread
CeilingNone
Temp04°C (ISA -3)
Dew Point-4°C (56% RH)
AAT-0.7°C
QNH1026 hPa
Density Alt3,448 ft
Elevation4,144 ft
Report Wrong Elevation
Raw Report
METAR KSVE 200815Z AUTO 28006KT 10SM CLR 04/M04 A3029 RMK AO2 =

Extra information for KSVE:More info

Airport Information Weather charts Add Link Nearby Venues Social comments

AIRNAV info for KSVE